sensor_id;sensor_type;location;lat;lon;timestamp;temperature;humidity
20459;DHT22;10388;52.314;7.938;2023-05-07T00:02:24;12.10;99.90
20459;DHT22;10388;52.314;7.938;2023-05-07T00:04:58;12.10;99.90
20459;DHT22;10388;52.314;7.938;2023-05-07T00:07:32;12.00;99.90
20459;DHT22;10388;52.314;7.938;2023-05-07T00:10:06;12.00;99.90
20459;DHT22;10388;52.314;7.938;2023-05-07T00:12:39;12.00;99.90
20459;DHT22;10388;52.314;7.938;2023-05-07T00:15:16;12.00;99.90
20459;DHT22;10388;52.314;7.938;2023-05-07T00:17:50;12.00;99.90
20459;DHT22;10388;52.314;7.938;2023-05-07T00:20:47;11.90;99.90
20459;DHT22;10388;52.314;7.938;2023-05-07T00:23:24;11.90;99.90
20459;DHT22;10388;52.314;7.938;2023-05-07T00:29:07;11.80;99.90
20459;DHT22;10388;52.314;7.938;2023-05-07T00:32:13;11.70;99.90
20459;DHT22;10388;52.314;7.938;2023-05-07T00:39:01;11.70;99.90
20459;DHT22;10388;52.314;7.938;2023-05-07T00:52:19;11.60;99.90
20459;DHT22;10388;52.314;7.938;2023-05-07T00:55:57;11.50;99.90
20459;DHT22;10388;52.314;7.938;2023-05-07T00:59:18;11.60;99.90
20459;DHT22;10388;52.314;7.938;2023-05-07T01:02:47;11.60;99.90
20459;DHT22;10388;52.314;7.938;2023-05-07T01:05:57;11.50;99.90
20459;DHT22;10388;52.314;7.938;2023-05-07T01:12:27;11.40;99.90
20459;DHT22;10388;52.314;7.938;2023-05-07T01:19:17;11.40;99.90
20459;DHT22;10388;52.314;7.938;2023-05-07T01:26:14;11.40;99.90
20459;DHT22;10388;52.314;7.938;2023-05-07T01:32:56;11.40;99.90
20459;DHT22;10388;52.314;7.938;2023-05-07T01:45:21;11.30;99.90
20459;DHT22;10388;52.314;7.938;2023-05-07T01:48:43;11.20;99.90
20459;DHT22;10388;52.314;7.938;2023-05-07T01:52:10;11.30;99.90
20459;DHT22;10388;52.314;7.938;2023-05-07T02:05:48;11.20;99.90
20459;DHT22;10388;52.314;7.938;2023-05-07T02:19:01;11.10;99.90
20459;DHT22;10388;52.314;7.938;2023-05-07T02:25:52;11.20;99.90
20459;DHT22;10388;52.314;7.938;2023-05-07T02:28:54;11.10;99.90
20459;DHT22;10388;52.314;7.938;2023-05-07T02:32:19;11.10;99.90
20459;DHT22;10388;52.314;7.938;2023-05-07T02:49:42;11.00;99.90
20459;DHT22;10388;52.314;7.938;2023-05-07T03:09:38;10.90;99.90
20459;DHT22;10388;52.314;7.938;2023-05-07T03:16:19;10.80;99.90
20459;DHT22;10388;52.314;7.938;2023-05-07T03:22:28;10.80;99.90
20459;DHT22;10388;52.314;7.938;2023-05-07T03:31:24;10.70;99.90
20459;DHT22;10388;52.314;7.938;2023-05-07T03:44:55;10.60;99.90
20459;DHT22;10388;52.314;7.938;2023-05-07T03:51:36;10.60;99.90
20459;DHT22;10388;52.314;7.938;2023-05-07T04:12:24;10.50;99.90
20459;DHT22;10388;52.314;7.938;2023-05-07T04:15:31;10.50;99.90
20459;DHT22;10388;52.314;7.938;2023-05-07T04:18:42;10.50;99.90
20459;DHT22;10388;52.314;7.938;2023-05-07T04:32:24;10.50;99.90
20459;DHT22;10388;52.314;7.938;2023-05-07T04:35:31;10.60;99.90
20459;DHT22;10388;52.314;7.938;2023-05-07T04:42:05;10.50;99.90
20459;DHT22;10388;52.314;7.938;2023-05-07T04:44:52;10.60;99.90
20459;DHT22;10388;52.314;7.938;2023-05-07T04:51:32;10.50;99.90
20459;DHT22;10388;52.314;7.938;2023-05-07T04:54:58;10.50;99.90
20459;DHT22;10388;52.314;7.938;2023-05-07T05:04:56;10.60;99.90
20459;DHT22;10388;52.314;7.938;2023-05-07T05:11:09;10.60;99.90
20459;DHT22;10388;52.314;7.938;2023-05-07T05:17:33;10.60;99.90
20459;DHT22;10388;52.314;7.938;2023-05-07T05:20:05;10.70;99.90
20459;DHT22;10388;52.314;7.938;2023-05-07T05:22:36;10.80;99.90
20459;DHT22;10388;52.314;7.938;2023-05-07T05:25:07;10.80;99.90
20459;DHT22;10388;52.314;7.938;2023-05-07T05:27:37;10.80;99.90
20459;DHT22;10388;52.314;7.938;2023-05-07T05:30:08;10.90;99.90
20459;DHT22;10388;52.314;7.938;2023-05-07T05:32:39;10.90;99.90
20459;DHT22;10388;52.314;7.938;2023-05-07T05:35:09;10.90;99.90
20459;DHT22;10388;52.314;7.938;2023-05-07T05:37:40;11.00;99.90
20459;DHT22;10388;52.314;7.938;2023-05-07T05:40:11;11.10;99.90
20459;DHT22;10388;52.314;7.938;2023-05-07T05:42:41;11.20;99.90
20459;DHT22;10388;52.314;7.938;2023-05-07T05:45:12;11.20;99.90
20459;DHT22;10388;52.314;7.938;2023-05-07T05:47:42;11.20;99.90
20459;DHT22;10388;52.314;7.938;2023-05-07T05:50:13;11.20;99.90
20459;DHT22;10388;52.314;7.938;2023-05-07T05:52:43;11.30;99.90
20459;DHT22;10388;52.314;7.938;2023-05-07T05:55:14;11.30;99.90
20459;DHT22;10388;52.314;7.938;2023-05-07T05:57:45;11.20;99.90
20459;DHT22;10388;52.314;7.938;2023-05-07T06:00:16;11.20;99.90
20459;DHT22;10388;52.314;7.938;2023-05-07T06:02:47;11.20;99.90
20459;DHT22;10388;52.314;7.938;2023-05-07T06:05:18;11.30;99.90
20459;DHT22;10388;52.314;7.938;2023-05-07T06:07:48;11.30;99.90
20459;DHT22;10388;52.314;7.938;2023-05-07T06:10:19;11.40;99.90
20459;DHT22;10388;52.314;7.938;2023-05-07T06:12:49;11.40;99.90
20459;DHT22;10388;52.314;7.938;2023-05-07T06:15:20;11.50;99.90
20459;DHT22;10388;52.314;7.938;2023-05-07T06:17:51;11.50;99.90
20459;DHT22;10388;52.314;7.938;2023-05-07T06:20:21;11.50;99.90
20459;DHT22;10388;52.314;7.938;2023-05-07T06:22:52;11.60;99.90
20459;DHT22;10388;52.314;7.938;2023-05-07T06:25:22;11.70;99.90
20459;DHT22;10388;52.314;7.938;2023-05-07T06:27:53;11.70;99.90
20459;DHT22;10388;52.314;7.938;2023-05-07T06:30:23;11.70;99.90
20459;DHT22;10388;52.314;7.938;2023-05-07T06:32:54;11.80;99.90
20459;DHT22;10388;52.314;7.938;2023-05-07T06:35:24;12.00;99.90
20459;DHT22;10388;52.314;7.938;2023-05-07T06:37:56;11.90;99.90
20459;DHT22;10388;52.314;7.938;2023-05-07T06:40:27;12.00;99.90
20459;DHT22;10388;52.314;7.938;2023-05-07T06:42:57;12.10;99.90
20459;DHT22;10388;52.314;7.938;2023-05-07T06:45:28;12.30;99.90
20459;DHT22;10388;52.314;7.938;2023-05-07T06:47:58;12.20;99.90
20459;DHT22;10388;52.314;7.938;2023-05-07T06:50:29;12.20;99.90
20459;DHT22;10388;52.314;7.938;2023-05-07T06:52:59;12.40;99.90
20459;DHT22;10388;52.314;7.938;2023-05-07T06:55:30;12.50;99.90
20459;DHT22;10388;52.314;7.938;2023-05-07T06:58:01;12.50;99.90
20459;DHT22;10388;52.314;7.938;2023-05-07T07:00:31;12.50;99.90
20459;DHT22;10388;52.314;7.938;2023-05-07T07:03:02;12.60;99.90
20459;DHT22;10388;52.314;7.938;2023-05-07T07:05:32;12.60;99.90
20459;DHT22;10388;52.314;7.938;2023-05-07T07:08:03;12.60;99.90
20459;DHT22;10388;52.314;7.938;2023-05-07T07:10:34;12.70;99.90
20459;DHT22;10388;52.314;7.938;2023-05-07T07:13:04;13.00;99.90
20459;DHT22;10388;52.314;7.938;2023-05-07T07:15:35;13.10;99.90
20459;DHT22;10388;52.314;7.938;2023-05-07T07:18:06;13.30;99.90
20459;DHT22;10388;52.314;7.938;2023-05-07T07:20:36;13.40;99.90
20459;DHT22;10388;52.314;7.938;2023-05-07T07:23:07;13.30;99.90
20459;DHT22;10388;52.314;7.938;2023-05-07T07:25:37;13.30;99.90
20459;DHT22;10388;52.314;7.938;2023-05-07T07:28:08;13.20;99.90
20459;DHT22;10388;52.314;7.938;2023-05-07T07:30:39;13.10;99.90
20459;DHT22;10388;52.314;7.938;2023-05-07T07:33:09;13.30;99.90
20459;DHT22;10388;52.314;7.938;2023-05-07T07:35:40;13.50;99.90
20459;DHT22;10388;52.314;7.938;2023-05-07T07:38:10;13.40;99.90
20459;DHT22;10388;52.314;7.938;2023-05-07T07:40:41;13.40;99.90
20459;DHT22;10388;52.314;7.938;2023-05-07T07:43:14;13.60;99.90
20459;DHT22;10388;52.314;7.938;2023-05-07T07:45:44;13.70;99.90
20459;DHT22;10388;52.314;7.938;2023-05-07T07:48:16;13.60;99.90
20459;DHT22;10388;52.314;7.938;2023-05-07T07:50:49;13.50;99.90
20459;DHT22;10388;52.314;7.938;2023-05-07T07:53:20;13.90;99.90
20459;DHT22;10388;52.314;7.938;2023-05-07T07:55:50;13.90;99.90
20459;DHT22;10388;52.314;7.938;2023-05-07T07:58:21;13.80;99.90
20459;DHT22;10388;52.314;7.938;2023-05-07T08:00:52;13.80;99.90
20459;DHT22;10388;52.314;7.938;2023-05-07T08:03:24;14.00;99.90
20459;DHT22;10388;52.314;7.938;2023-05-07T08:05:55;14.10;99.90
20459;DHT22;10388;52.314;7.938;2023-05-07T08:08:25;14.30;99.90
20459;DHT22;10388;52.314;7.938;2023-05-07T08:10:56;13.70;99.90
20459;DHT22;10388;52.314;7.938;2023-05-07T08:13:26;14.00;99.90
20459;DHT22;10388;52.314;7.938;2023-05-07T08:15:57;14.20;99.90
20459;DHT22;10388;52.314;7.938;2023-05-07T08:18:28;14.20;99.90
20459;DHT22;10388;52.314;7.938;2023-05-07T08:20:59;14.30;99.90
20459;DHT22;10388;52.314;7.938;2023-05-07T08:23:30;14.80;99.90
20459;DHT22;10388;52.314;7.938;2023-05-07T08:26:00;15.10;99.90
20459;DHT22;10388;52.314;7.938;2023-05-07T08:28:31;14.80;99.90
20459;DHT22;10388;52.314;7.938;2023-05-07T08:31:01;14.60;99.90
20459;DHT22;10388;52.314;7.938;2023-05-07T08:33:32;14.40;99.90
20459;DHT22;10388;52.314;7.938;2023-05-07T08:36:03;14.50;99.90
20459;DHT22;10388;52.314;7.938;2023-05-07T08:38:33;14.80;99.90
20459;DHT22;10388;52.314;7.938;2023-05-07T08:41:04;15.10;99.90
20459;DHT22;10388;52.314;7.938;2023-05-07T08:43:36;14.80;99.90
20459;DHT22;10388;52.314;7.938;2023-05-07T08:46:09;15.00;99.90
20459;DHT22;10388;52.314;7.938;2023-05-07T08:48:40;15.40;99.90
20459;DHT22;10388;52.314;7.938;2023-05-07T08:51:20;15.80;99.90
20459;DHT22;10388;52.314;7.938;2023-05-07T08:53:50;15.80;99.90
20459;DHT22;10388;52.314;7.938;2023-05-07T08:56:21;15.90;99.90
20459;DHT22;10388;52.314;7.938;2023-05-07T08:58:52;15.80;99.90
20459;DHT22;10388;52.314;7.938;2023-05-07T09:01:26;16.00;99.90
20459;DHT22;10388;52.314;7.938;2023-05-07T09:03:57;16.00;99.90
20459;DHT22;10388;52.314;7.938;2023-05-07T09:06:28;15.80;99.90
20459;DHT22;10388;52.314;7.938;2023-05-07T09:08:58;15.80;99.90
20459;DHT22;10388;52.314;7.938;2023-05-07T09:11:31;15.70;99.90
20459;DHT22;10388;52.314;7.938;2023-05-07T09:14:02;15.90;99.90
20459;DHT22;10388;52.314;7.938;2023-05-07T09:16:33;16.40;99.90
20459;DHT22;10388;52.314;7.938;2023-05-07T09:19:03;16.80;99.90
20459;DHT22;10388;52.314;7.938;2023-05-07T09:21:34;16.80;99.90
20459;DHT22;10388;52.314;7.938;2023-05-07T09:24:05;16.90;99.90
20459;DHT22;10388;52.314;7.938;2023-05-07T09:26:36;16.90;99.90
20459;DHT22;10388;52.314;7.938;2023-05-07T09:29:07;16.50;99.90
20459;DHT22;10388;52.314;7.938;2023-05-07T09:31:40;16.30;99.90
20459;DHT22;10388;52.314;7.938;2023-05-07T09:34:10;16.70;99.90
20459;DHT22;10388;52.314;7.938;2023-05-07T09:36:41;17.20;99.90
20459;DHT22;10388;52.314;7.938;2023-05-07T09:39:12;17.30;99.90
20459;DHT22;10388;52.314;7.938;2023-05-07T09:41:44;17.10;99.90
20459;DHT22;10388;52.314;7.938;2023-05-07T09:44:15;17.50;99.90
20459;DHT22;10388;52.314;7.938;2023-05-07T09:46:47;17.60;99.90
20459;DHT22;10388;52.314;7.938;2023-05-07T09:49:23;17.80;99.90
20459;DHT22;10388;52.314;7.938;2023-05-07T09:51:55;17.10;99.90
20459;DHT22;10388;52.314;7.938;2023-05-07T09:54:27;17.50;99.90
20459;DHT22;10388;52.314;7.938;2023-05-07T09:57:05;17.50;99.90
20459;DHT22;10388;52.314;7.938;2023-05-07T09:59:37;17.00;99.90
20459;DHT22;10388;52.314;7.938;2023-05-07T10:02:09;17.30;99.90
20459;DHT22;10388;52.314;7.938;2023-05-07T10:04:40;17.50;99.90
20459;DHT22;10388;52.314;7.938;2023-05-07T10:07:11;18.00;99.90
20459;DHT22;10388;52.314;7.938;2023-05-07T10:09:42;17.90;99.90
20459;DHT22;10388;52.314;7.938;2023-05-07T10:12:14;17.80;99.90
20459;DHT22;10388;52.314;7.938;2023-05-07T10:14:45;18.00;99.90
20459;DHT22;10388;52.314;7.938;2023-05-07T10:17:16;17.30;99.90
20459;DHT22;10388;52.314;7.938;2023-05-07T10:19:47;17.80;99.90
20459;DHT22;10388;52.314;7.938;2023-05-07T10:22:19;18.00;99.90
20459;DHT22;10388;52.314;7.938;2023-05-07T10:24:52;18.00;99.90
20459;DHT22;10388;52.314;7.938;2023-05-07T10:27:24;18.80;99.90
20459;DHT22;10388;52.314;7.938;2023-05-07T10:30:07;18.50;99.90
20459;DHT22;10388;52.314;7.938;2023-05-07T10:32:47;18.30;99.90
20459;DHT22;10388;52.314;7.938;2023-05-07T10:35:22;18.60;99.90
20459;DHT22;10388;52.314;7.938;2023-05-07T10:37:54;18.40;99.90
20459;DHT22;10388;52.314;7.938;2023-05-07T10:40:25;18.90;99.90
20459;DHT22;10388;52.314;7.938;2023-05-07T10:42:57;19.20;99.90
20459;DHT22;10388;52.314;7.938;2023-05-07T10:45:30;18.90;99.90
20459;DHT22;10388;52.314;7.938;2023-05-07T10:48:16;18.60;99.90
20459;DHT22;10388;52.314;7.938;2023-05-07T10:50:47;18.40;99.90
20459;DHT22;10388;52.314;7.938;2023-05-07T10:55:50;19.00;99.90
20459;DHT22;10388;52.314;7.938;2023-05-07T10:58:29;19.30;99.90
20459;DHT22;10388;52.314;7.938;2023-05-07T11:01:00;18.90;99.90
20459;DHT22;10388;52.314;7.938;2023-05-07T11:03:31;19.00;99.90
20459;DHT22;10388;52.314;7.938;2023-05-07T11:06:13;18.80;99.90
20459;DHT22;10388;52.314;7.938;2023-05-07T11:08:56;19.30;99.90
20459;DHT22;10388;52.314;7.938;2023-05-07T11:12:02;19.50;99.90
20459;DHT22;10388;52.314;7.938;2023-05-07T11:14:43;19.10;99.90
20459;DHT22;10388;52.314;7.938;2023-05-07T11:17:14;19.50;99.90
20459;DHT22;10388;52.314;7.938;2023-05-07T11:19:54;19.20;99.90
20459;DHT22;10388;52.314;7.938;2023-05-07T11:25:03;19.40;99.90
20459;DHT22;10388;52.314;7.938;2023-05-07T11:27:34;19.40;99.90
20459;DHT22;10388;52.314;7.938;2023-05-07T11:30:05;18.90;99.90
20459;DHT22;10388;52.314;7.938;2023-05-07T11:32:36;18.80;99.90
20459;DHT22;10388;52.314;7.938;2023-05-07T11:35:07;19.10;99.90
20459;DHT22;10388;52.314;7.938;2023-05-07T11:37:38;19.00;99.90
20459;DHT22;10388;52.314;7.938;2023-05-07T11:40:09;19.20;99.90
20459;DHT22;10388;52.314;7.938;2023-05-07T11:42:44;19.30;99.90
20459;DHT22;10388;52.314;7.938;2023-05-07T11:45:23;19.10;99.90
20459;DHT22;10388;52.314;7.938;2023-05-07T11:47:55;19.20;99.90
20459;DHT22;10388;52.314;7.938;2023-05-07T11:50:25;18.90;99.90
20459;DHT22;10388;52.314;7.938;2023-05-07T11:52:56;19.20;99.90
20459;DHT22;10388;52.314;7.938;2023-05-07T11:55:27;19.20;99.90
20459;DHT22;10388;52.314;7.938;2023-05-07T11:57:58;19.00;99.90
20459;DHT22;10388;52.314;7.938;2023-05-07T12:00:28;19.10;99.90
20459;DHT22;10388;52.314;7.938;2023-05-07T12:03:06;19.50;99.90
20459;DHT22;10388;52.314;7.938;2023-05-07T12:05:36;19.40;99.90
20459;DHT22;10388;52.314;7.938;2023-05-07T12:08:20;19.20;99.90
20459;DHT22;10388;52.314;7.938;2023-05-07T12:10:50;19.70;99.90
20459;DHT22;10388;52.314;7.938;2023-05-07T12:13:23;19.30;99.90
20459;DHT22;10388;52.314;7.938;2023-05-07T12:15:55;19.20;99.90
20459;DHT22;10388;52.314;7.938;2023-05-07T12:18:26;19.60;99.90
20459;DHT22;10388;52.314;7.938;2023-05-07T12:20:59;18.90;99.90
20459;DHT22;10388;52.314;7.938;2023-05-07T12:23:30;19.00;99.90
20459;DHT22;10388;52.314;7.938;2023-05-07T12:26:01;19.50;99.90
20459;DHT22;10388;52.314;7.938;2023-05-07T12:28:36;19.60;99.90
20459;DHT22;10388;52.314;7.938;2023-05-07T12:31:08;19.50;99.90
20459;DHT22;10388;52.314;7.938;2023-05-07T12:33:39;19.90;99.90
20459;DHT22;10388;52.314;7.938;2023-05-07T12:36:12;20.40;99.90
20459;DHT22;10388;52.314;7.938;2023-05-07T12:38:43;20.80;99.90
20459;DHT22;10388;52.314;7.938;2023-05-07T12:41:13;20.40;99.90
20459;DHT22;10388;52.314;7.938;2023-05-07T12:43:44;20.50;99.90
20459;DHT22;10388;52.314;7.938;2023-05-07T12:46:15;19.90;99.90
20459;DHT22;10388;52.314;7.938;2023-05-07T12:48:48;19.90;99.90
20459;DHT22;10388;52.314;7.938;2023-05-07T12:51:19;20.10;99.90
20459;DHT22;10388;52.314;7.938;2023-05-07T12:53:49;20.60;99.90
20459;DHT22;10388;52.314;7.938;2023-05-07T12:56:20;21.20;99.90
20459;DHT22;10388;52.314;7.938;2023-05-07T12:58:50;21.20;99.90
20459;DHT22;10388;52.314;7.938;2023-05-07T13:01:21;20.90;99.90
20459;DHT22;10388;52.314;7.938;2023-05-07T13:03:54;21.10;99.90
20459;DHT22;10388;52.314;7.938;2023-05-07T13:06:24;21.10;99.90
20459;DHT22;10388;52.314;7.938;2023-05-07T13:08:55;20.50;99.90
20459;DHT22;10388;52.314;7.938;2023-05-07T13:11:25;21.00;99.90
20459;DHT22;10388;52.314;7.938;2023-05-07T13:13:56;20.50;99.90
20459;DHT22;10388;52.314;7.938;2023-05-07T13:16:27;20.40;99.90
20459;DHT22;10388;52.314;7.938;2023-05-07T13:18:57;20.60;99.90
20459;DHT22;10388;52.314;7.938;2023-05-07T13:21:28;20.80;99.90
20459;DHT22;10388;52.314;7.938;2023-05-07T13:24:00;20.50;99.90
20459;DHT22;10388;52.314;7.938;2023-05-07T13:26:31;20.70;99.90
20459;DHT22;10388;52.314;7.938;2023-05-07T13:29:01;20.40;99.90
20459;DHT22;10388;52.314;7.938;2023-05-07T13:31:32;20.50;99.90
20459;DHT22;10388;52.314;7.938;2023-05-07T13:34:04;20.30;99.90
20459;DHT22;10388;52.314;7.938;2023-05-07T13:36:34;20.40;99.90
20459;DHT22;10388;52.314;7.938;2023-05-07T13:39:07;20.60;99.90
20459;DHT22;10388;52.314;7.938;2023-05-07T13:41:37;20.10;99.90
20459;DHT22;10388;52.314;7.938;2023-05-07T13:44:08;19.80;99.90
20459;DHT22;10388;52.314;7.938;2023-05-07T13:46:39;20.10;99.90
20459;DHT22;10388;52.314;7.938;2023-05-07T13:49:09;20.20;99.90
20459;DHT22;10388;52.314;7.938;2023-05-07T13:51:41;20.50;99.90
20459;DHT22;10388;52.314;7.938;2023-05-07T13:54:11;20.10;99.90
20459;DHT22;10388;52.314;7.938;2023-05-07T13:56:42;20.00;99.90
20459;DHT22;10388;52.314;7.938;2023-05-07T13:59:12;20.30;99.90
20459;DHT22;10388;52.314;7.938;2023-05-07T14:01:44;19.90;99.90
20459;DHT22;10388;52.314;7.938;2023-05-07T14:04:15;19.90;99.90
20459;DHT22;10388;52.314;7.938;2023-05-07T14:06:45;20.60;99.90
20459;DHT22;10388;52.314;7.938;2023-05-07T14:09:16;20.60;99.90
20459;DHT22;10388;52.314;7.938;2023-05-07T14:11:47;20.70;99.90
20459;DHT22;10388;52.314;7.938;2023-05-07T14:14:21;20.20;99.90
20459;DHT22;10388;52.314;7.938;2023-05-07T14:16:52;20.40;99.90
20459;DHT22;10388;52.314;7.938;2023-05-07T14:19:22;20.40;99.90
20459;DHT22;10388;52.314;7.938;2023-05-07T14:21:53;20.40;99.90
20459;DHT22;10388;52.314;7.938;2023-05-07T14:24:24;20.90;99.90
20459;DHT22;10388;52.314;7.938;2023-05-07T14:26:54;20.80;99.90
20459;DHT22;10388;52.314;7.938;2023-05-07T14:29:25;20.80;99.90
20459;DHT22;10388;52.314;7.938;2023-05-07T14:31:56;21.00;99.90
20459;DHT22;10388;52.314;7.938;2023-05-07T14:34:26;20.70;99.90
20459;DHT22;10388;52.314;7.938;2023-05-07T14:36:57;20.60;99.90
20459;DHT22;10388;52.314;7.938;2023-05-07T14:39:28;20.60;99.90
20459;DHT22;10388;52.314;7.938;2023-05-07T14:41:58;20.90;99.90
20459;DHT22;10388;52.314;7.938;2023-05-07T14:44:29;20.90;99.90
20459;DHT22;10388;52.314;7.938;2023-05-07T14:46:59;20.40;99.90
20459;DHT22;10388;52.314;7.938;2023-05-07T14:49:30;20.60;99.90
20459;DHT22;10388;52.314;7.938;2023-05-07T14:52:00;20.60;99.90
20459;DHT22;10388;52.314;7.938;2023-05-07T14:54:37;20.80;99.90
20459;DHT22;10388;52.314;7.938;2023-05-07T14:57:09;20.50;99.90
20459;DHT22;10388;52.314;7.938;2023-05-07T14:59:40;20.60;99.90
20459;DHT22;10388;52.314;7.938;2023-05-07T15:02:12;20.20;99.90
20459;DHT22;10388;52.314;7.938;2023-05-07T15:04:42;20.20;99.90
20459;DHT22;10388;52.314;7.938;2023-05-07T15:07:16;20.40;99.90
20459;DHT22;10388;52.314;7.938;2023-05-07T15:09:46;20.30;99.90
20459;DHT22;10388;52.314;7.938;2023-05-07T15:12:17;19.70;99.90
20459;DHT22;10388;52.314;7.938;2023-05-07T15:14:47;19.80;99.90
20459;DHT22;10388;52.314;7.938;2023-05-07T15:17:18;19.70;99.90
20459;DHT22;10388;52.314;7.938;2023-05-07T15:19:48;19.50;99.90
20459;DHT22;10388;52.314;7.938;2023-05-07T15:22:19;19.40;99.90
20459;DHT22;10388;52.314;7.938;2023-05-07T15:24:51;19.30;99.90
20459;DHT22;10388;52.314;7.938;2023-05-07T15:27:22;19.00;99.90
20459;DHT22;10388;52.314;7.938;2023-05-07T15:29:52;19.20;99.90
20459;DHT22;10388;52.314;7.938;2023-05-07T15:32:23;19.20;99.90
20459;DHT22;10388;52.314;7.938;2023-05-07T15:34:53;19.10;99.90
20459;DHT22;10388;52.314;7.938;2023-05-07T15:37:24;19.30;99.90
20459;DHT22;10388;52.314;7.938;2023-05-07T15:39:54;19.40;99.90
20459;DHT22;10388;52.314;7.938;2023-05-07T15:42:25;19.20;99.90
20459;DHT22;10388;52.314;7.938;2023-05-07T15:44:55;19.10;99.90
20459;DHT22;10388;52.314;7.938;2023-05-07T15:47:26;19.10;99.90
20459;DHT22;10388;52.314;7.938;2023-05-07T15:49:57;19.00;99.90
20459;DHT22;10388;52.314;7.938;2023-05-07T15:52:27;18.60;99.90
20459;DHT22;10388;52.314;7.938;2023-05-07T15:54:58;18.60;99.90
20459;DHT22;10388;52.314;7.938;2023-05-07T15:57:29;18.70;99.90
20459;DHT22;10388;52.314;7.938;2023-05-07T16:00:00;18.90;99.90
20459;DHT22;10388;52.314;7.938;2023-05-07T16:02:30;19.00;99.90
20459;DHT22;10388;52.314;7.938;2023-05-07T16:05:01;18.40;99.90
20459;DHT22;10388;52.314;7.938;2023-05-07T16:07:32;18.50;99.90
20459;DHT22;10388;52.314;7.938;2023-05-07T16:10:03;18.70;99.90
20459;DHT22;10388;52.314;7.938;2023-05-07T16:12:34;18.90;99.90
20459;DHT22;10388;52.314;7.938;2023-05-07T16:15:05;18.50;99.90
20459;DHT22;10388;52.314;7.938;2023-05-07T16:17:35;18.60;99.90
20459;DHT22;10388;52.314;7.938;2023-05-07T16:20:06;18.30;99.90
20459;DHT22;10388;52.314;7.938;2023-05-07T16:22:38;18.20;99.90
20459;DHT22;10388;52.314;7.938;2023-05-07T16:25:09;18.00;99.90
20459;DHT22;10388;52.314;7.938;2023-05-07T16:27:39;18.10;99.90
20459;DHT22;10388;52.314;7.938;2023-05-07T16:30:10;18.20;99.90
20459;DHT22;10388;52.314;7.938;2023-05-07T16:32:40;18.00;99.90
20459;DHT22;10388;52.314;7.938;2023-05-07T16:35:11;17.90;99.90
20459;DHT22;10388;52.314;7.938;2023-05-07T16:37:42;17.90;99.90
20459;DHT22;10388;52.314;7.938;2023-05-07T16:40:12;17.80;99.90
20459;DHT22;10388;52.314;7.938;2023-05-07T16:42:43;17.80;99.90
20459;DHT22;10388;52.314;7.938;2023-05-07T16:45:13;17.60;99.90
20459;DHT22;10388;52.314;7.938;2023-05-07T16:47:44;17.50;99.90
20459;DHT22;10388;52.314;7.938;2023-05-07T16:50:14;17.60;99.90
20459;DHT22;10388;52.314;7.938;2023-05-07T16:52:45;17.60;99.90
20459;DHT22;10388;52.314;7.938;2023-05-07T16:55:16;17.50;99.90
20459;DHT22;10388;52.314;7.938;2023-05-07T16:57:46;17.40;99.90
20459;DHT22;10388;52.314;7.938;2023-05-07T17:00:17;17.10;99.90
20459;DHT22;10388;52.314;7.938;2023-05-07T17:02:47;16.90;99.90
20459;DHT22;10388;52.314;7.938;2023-05-07T17:05:18;16.90;99.90
20459;DHT22;10388;52.314;7.938;2023-05-07T17:07:49;16.80;99.90
20459;DHT22;10388;52.314;7.938;2023-05-07T17:10:20;16.60;99.90
20459;DHT22;10388;52.314;7.938;2023-05-07T17:12:51;16.60;99.90
20459;DHT22;10388;52.314;7.938;2023-05-07T17:15:21;16.40;99.90
20459;DHT22;10388;52.314;7.938;2023-05-07T17:17:52;16.40;99.90
20459;DHT22;10388;52.314;7.938;2023-05-07T17:20:22;16.30;99.90
20459;DHT22;10388;52.314;7.938;2023-05-07T17:22:54;16.30;99.90
20459;DHT22;10388;52.314;7.938;2023-05-07T17:25:25;16.20;99.90
20459;DHT22;10388;52.314;7.938;2023-05-07T17:27:55;16.20;99.90
20459;DHT22;10388;52.314;7.938;2023-05-07T17:30:25;16.20;99.90
20459;DHT22;10388;52.314;7.938;2023-05-07T17:32:56;16.20;99.90
20459;DHT22;10388;52.314;7.938;2023-05-07T17:35:27;16.10;99.90
20459;DHT22;10388;52.314;7.938;2023-05-07T17:38:01;15.90;99.90
20459;DHT22;10388;52.314;7.938;2023-05-07T17:40:32;15.80;99.90
20459;DHT22;10388;52.314;7.938;2023-05-07T17:43:03;15.80;99.90
20459;DHT22;10388;52.314;7.938;2023-05-07T17:45:34;15.70;99.90
20459;DHT22;10388;52.314;7.938;2023-05-07T17:48:05;15.70;99.90
20459;DHT22;10388;52.314;7.938;2023-05-07T17:50:36;15.70;99.90
20459;DHT22;10388;52.314;7.938;2023-05-07T17:53:06;15.60;99.90
20459;DHT22;10388;52.314;7.938;2023-05-07T17:55:42;15.70;99.90
20459;DHT22;10388;52.314;7.938;2023-05-07T17:58:14;15.60;99.90
20459;DHT22;10388;52.314;7.938;2023-05-07T18:00:44;15.40;99.90
20459;DHT22;10388;52.314;7.938;2023-05-07T18:03:15;15.30;99.90
20459;DHT22;10388;52.314;7.938;2023-05-07T18:05:45;15.20;99.90
20459;DHT22;10388;52.314;7.938;2023-05-07T18:08:16;15.20;99.90
20459;DHT22;10388;52.314;7.938;2023-05-07T18:10:46;15.20;99.90
20459;DHT22;10388;52.314;7.938;2023-05-07T18:13:17;15.20;99.90
20459;DHT22;10388;52.314;7.938;2023-05-07T18:15:47;15.10;99.90
20459;DHT22;10388;52.314;7.938;2023-05-07T18:18:18;15.10;99.90
20459;DHT22;10388;52.314;7.938;2023-05-07T18:20:49;15.00;99.90
20459;DHT22;10388;52.314;7.938;2023-05-07T18:23:20;15.00;99.90
20459;DHT22;10388;52.314;7.938;2023-05-07T18:25:51;15.00;99.90
20459;DHT22;10388;52.314;7.938;2023-05-07T18:28:21;14.80;99.90
20459;DHT22;10388;52.314;7.938;2023-05-07T18:30:52;14.70;99.90
20459;DHT22;10388;52.314;7.938;2023-05-07T18:33:22;14.60;99.90
20459;DHT22;10388;52.314;7.938;2023-05-07T18:35:53;14.60;99.90
20459;DHT22;10388;52.314;7.938;2023-05-07T18:38:24;14.60;99.90
20459;DHT22;10388;52.314;7.938;2023-05-07T18:41:04;14.50;99.90
20459;DHT22;10388;52.314;7.938;2023-05-07T18:43:35;14.40;99.90
20459;DHT22;10388;52.314;7.938;2023-05-07T18:46:05;14.50;99.90
20459;DHT22;10388;52.314;7.938;2023-05-07T18:48:36;14.30;99.90
20459;DHT22;10388;52.314;7.938;2023-05-07T18:51:07;14.30;99.90
20459;DHT22;10388;52.314;7.938;2023-05-07T18:53:41;14.30;99.90
20459;DHT22;10388;52.314;7.938;2023-05-07T18:56:12;14.20;99.90
20459;DHT22;10388;52.314;7.938;2023-05-07T18:58:43;14.20;99.90
20459;DHT22;10388;52.314;7.938;2023-05-07T19:01:13;14.10;99.90
20459;DHT22;10388;52.314;7.938;2023-05-07T19:03:44;14.10;99.90
20459;DHT22;10388;52.314;7.938;2023-05-07T19:06:14;14.00;99.90
20459;DHT22;10388;52.314;7.938;2023-05-07T19:08:45;14.00;99.90
20459;DHT22;10388;52.314;7.938;2023-05-07T19:11:15;13.90;99.90
20459;DHT22;10388;52.314;7.938;2023-05-07T19:13:46;13.80;99.90
20459;DHT22;10388;52.314;7.938;2023-05-07T19:16:17;13.80;99.90
20459;DHT22;10388;52.314;7.938;2023-05-07T19:18:47;13.80;99.90